createdAt,value
2023-02-26T00:02:10.928Z,11.10
2023-02-26T00:04:39.010Z,10.30
2023-02-26T00:07:07.495Z,9.10
2023-02-26T00:09:35.602Z,11.20
2023-02-26T00:12:03.946Z,9.40
2023-02-26T00:14:33.106Z,11.30
2023-02-26T00:21:18.320Z,10.80
2023-02-26T00:23:46.814Z,10.70
2023-02-26T00:26:17.041Z,12.10
2023-02-26T00:28:46.076Z,9.90
2023-02-26T00:31:15.482Z,8.90
2023-02-26T00:33:44.588Z,8.50
2023-02-26T00:36:29.950Z,10.90
2023-02-26T00:39:49.269Z,10.20
2023-02-26T00:42:18.076Z,10.60
2023-02-26T00:44:46.785Z,10.90
2023-02-26T00:47:37.053Z,10.50
2023-02-26T00:50:17.426Z,7.80
2023-02-26T00:52:58.312Z,11.80
2023-02-26T00:55:28.376Z,12.60
2023-02-26T00:57:57.827Z,9.70
2023-02-26T01:00:26.258Z,8.80
2023-02-26T01:02:54.706Z,8.90
2023-02-26T01:05:23.049Z,9.40
2023-02-26T01:08:03.398Z,10.80
2023-02-26T01:10:32.989Z,6.20
2023-02-26T01:13:01.402Z,5.40
2023-02-26T01:15:33.166Z,9.90
2023-02-26T01:18:22.255Z,10.70
2023-02-26T01:20:54.601Z,10.30
2023-02-26T01:23:26.381Z,11.50
2023-02-26T01:26:06.956Z,9.70
2023-02-26T01:28:35.511Z,10.30
2023-02-26T01:31:05.722Z,10.80
2023-02-26T01:33:41.727Z,9.30
2023-02-26T01:36:21.580Z,10.90
2023-02-26T01:39:17.957Z,11.30
2023-02-26T01:41:56.741Z,10.80
2023-02-26T01:44:51.000Z,9.60
2023-02-26T01:47:38.985Z,10.90
2023-02-26T01:50:16.051Z,11.30
2023-02-26T01:52:50.490Z,11.10
2023-02-26T01:55:21.352Z,10.50
2023-02-26T01:57:50.087Z,11.20
2023-02-26T02:00:19.107Z,6.40
2023-02-26T02:02:48.619Z,7.40
2023-02-26T02:05:22.110Z,8.90
2023-02-26T02:07:50.477Z,9.10
2023-02-26T02:10:18.764Z,9.10
2023-02-26T02:12:56.190Z,7.40
2023-02-26T02:15:27.200Z,6.90
2023-02-26T02:18:30.273Z,7.80
2023-02-26T02:21:13.701Z,8.50
2023-02-26T02:24:19.951Z,8.60
2023-02-26T02:27:04.331Z,8.00
2023-02-26T02:29:48.121Z,7.70
2023-02-26T02:32:24.353Z,9.20
2023-02-26T02:34:55.590Z,8.80
2023-02-26T02:37:34.701Z,7.30
2023-02-26T02:40:09.140Z,8.30
2023-02-26T02:42:43.918Z,5.50
2023-02-26T02:45:20.232Z,6.20
2023-02-26T02:47:51.148Z,8.30
2023-02-26T02:50:45.926Z,9.80
2023-02-26T02:53:15.505Z,8.10
2023-02-26T02:55:49.093Z,7.70
2023-02-26T02:58:22.664Z,8.40
2023-02-26T03:00:54.804Z,8.90
2023-02-26T03:03:39.157Z,9.80
2023-02-26T03:06:07.737Z,8.90
2023-02-26T03:08:41.484Z,9.50
2023-02-26T03:11:10.980Z,9.30
2023-02-26T03:13:40.451Z,9.90
2023-02-26T03:16:20.504Z,10.40
2023-02-26T03:19:07.588Z,9.30
2023-02-26T03:21:44.017Z,9.30
2023-02-26T03:24:31.100Z,7.20
2023-02-26T03:27:25.954Z,9.20
2023-02-26T03:30:19.436Z,10.20
2023-02-26T03:33:09.047Z,9.60
2023-02-26T03:35:47.726Z,8.50
2023-02-26T03:38:35.954Z,6.90
2023-02-26T03:41:10.606Z,9.20
2023-02-26T03:43:48.227Z,8.00
2023-02-26T03:46:21.034Z,8.70
2023-02-26T03:48:51.457Z,8.80
2023-02-26T03:51:21.847Z,9.40
2023-02-26T03:54:03.307Z,10.30
2023-02-26T03:56:42.303Z,10.50
2023-02-26T03:59:30.583Z,11.70
2023-02-26T04:02:38.680Z,11.00
2023-02-26T04:05:16.719Z,10.60
2023-02-26T04:07:46.024Z,11.10
2023-02-26T04:10:15.960Z,12.50
2023-02-26T04:12:44.244Z,11.20
2023-02-26T04:15:13.251Z,12.80
2023-02-26T04:17:41.954Z,7.40
2023-02-26T04:20:11.152Z,9.30
2023-02-26T04:22:39.450Z,9.90
2023-02-26T04:25:09.224Z,9.20
2023-02-26T04:27:38.251Z,11.00
2023-02-26T04:30:07.581Z,10.90
2023-02-26T04:32:36.180Z,10.60
2023-02-26T04:35:04.766Z,8.40
2023-02-26T04:37:34.146Z,10.90
2023-02-26T04:40:02.621Z,10.60
2023-02-26T04:42:34.019Z,11.10
2023-02-26T04:45:02.303Z,10.60
2023-02-26T04:47:31.166Z,9.40
2023-02-26T04:49:59.160Z,10.00
2023-02-26T04:52:29.997Z,10.10
2023-02-26T04:54:58.451Z,10.80
2023-02-26T04:57:27.021Z,14.10
2023-02-26T04:59:57.137Z,13.90
2023-02-26T05:02:29.034Z,11.60
2023-02-26T05:04:57.255Z,11.70
2023-02-26T05:07:25.680Z,7.90
2023-02-26T05:09:54.182Z,12.60
2023-02-26T05:12:22.602Z,12.30
2023-02-26T05:14:50.862Z,14.90
2023-02-26T05:17:19.054Z,11.10
2023-02-26T05:19:47.461Z,10.70
2023-02-26T05:22:21.670Z,11.40
2023-02-26T05:24:50.000Z,10.70
2023-02-26T05:27:18.401Z,10.40
2023-02-26T05:29:47.853Z,9.50
2023-02-26T05:32:16.905Z,9.90
2023-02-26T05:34:44.991Z,9.40
2023-02-26T05:37:13.313Z,9.50
2023-02-26T05:39:43.666Z,12.00
2023-02-26T05:42:11.698Z,10.20
2023-02-26T05:44:39.812Z,10.30
2023-02-26T05:47:08.793Z,9.80
2023-02-26T05:49:42.024Z,8.90
2023-02-26T05:52:10.556Z,9.90
2023-02-26T05:54:38.679Z,9.20
2023-02-26T05:57:09.560Z,9.40
2023-02-26T05:59:40.427Z,10.20
2023-02-26T06:02:08.533Z,9.10
2023-02-26T06:04:36.719Z,9.30
2023-02-26T06:07:05.298Z,9.50
2023-02-26T06:09:33.826Z,10.10
2023-02-26T06:12:05.407Z,10.90
2023-02-26T06:14:34.800Z,8.60
2023-02-26T06:17:04.460Z,10.30
2023-02-26T06:19:35.031Z,9.00
2023-02-26T06:22:03.060Z,8.80
2023-02-26T06:24:31.140Z,8.10
2023-02-26T06:26:59.184Z,7.90
2023-02-26T06:29:27.287Z,8.70
2023-02-26T06:31:57.745Z,8.20
2023-02-26T06:34:25.963Z,10.60
2023-02-26T06:36:54.032Z,10.00
2023-02-26T06:39:22.623Z,10.20
2023-02-26T06:41:50.825Z,9.60
2023-02-26T06:44:19.229Z,9.70
2023-02-26T06:46:47.370Z,10.30
2023-02-26T06:49:16.376Z,10.30
2023-02-26T06:51:44.828Z,9.50
2023-02-26T06:54:14.540Z,11.10
2023-02-26T06:56:43.321Z,11.00
2023-02-26T06:59:11.432Z,9.90
2023-02-26T07:01:39.970Z,9.00
2023-02-26T07:04:07.964Z,10.30
2023-02-26T07:06:39.312Z,9.00
2023-02-26T07:09:07.606Z,10.30
2023-02-26T07:11:35.642Z,10.00
2023-02-26T07:14:03.904Z,11.00
2023-02-26T07:16:32.044Z,10.30
2023-02-26T07:19:00.645Z,10.20
2023-02-26T07:21:29.148Z,10.20
2023-02-26T07:24:00.287Z,10.50
2023-02-26T07:26:32.469Z,10.70
2023-02-26T07:29:00.897Z,11.00
2023-02-26T07:31:29.389Z,10.50
2023-02-26T07:33:57.539Z,10.90
2023-02-26T07:36:25.879Z,8.60
2023-02-26T07:38:54.232Z,10.60
2023-02-26T07:41:22.598Z,8.80
2023-02-26T07:43:50.920Z,9.20
2023-02-26T07:46:19.075Z,11.50
2023-02-26T07:48:47.291Z,12.30
2023-02-26T07:51:15.554Z,10.40
2023-02-26T07:53:44.051Z,11.30
2023-02-26T07:56:13.034Z,10.00
2023-02-26T07:58:41.750Z,10.50
2023-02-26T08:01:09.904Z,6.50
2023-02-26T08:03:40.439Z,11.10
2023-02-26T08:06:09.302Z,12.30
2023-02-26T08:08:39.889Z,11.00
2023-02-26T08:11:08.400Z,7.30
2023-02-26T08:13:36.517Z,10.10
2023-02-26T08:16:06.574Z,6.30
2023-02-26T08:18:34.756Z,9.40
2023-02-26T08:21:02.971Z,9.60
2023-02-26T08:23:33.274Z,9.30
2023-02-26T08:26:05.595Z,10.10
2023-02-26T08:28:33.860Z,11.90
2023-02-26T08:31:05.195Z,9.80
2023-02-26T08:33:35.633Z,11.10
2023-02-26T08:36:04.487Z,10.00
2023-02-26T08:38:33.206Z,10.00
2023-02-26T08:41:01.379Z,9.60
2023-02-26T08:43:30.979Z,10.20
2023-02-26T08:46:00.254Z,9.90
2023-02-26T08:48:29.221Z,10.20
2023-02-26T08:50:57.664Z,12.40
2023-02-26T08:53:26.605Z,10.40
2023-02-26T08:55:54.732Z,13.90
2023-02-26T08:58:22.824Z,11.90
2023-02-26T09:00:51.333Z,12.00
2023-02-26T09:03:20.111Z,12.10
2023-02-26T09:05:48.248Z,10.90
2023-02-26T09:08:17.675Z,12.70
2023-02-26T09:10:46.138Z,10.50
2023-02-26T09:13:15.546Z,11.90
2023-02-26T09:15:43.648Z,13.80
2023-02-26T09:18:15.751Z,11.40
2023-02-26T09:20:44.734Z,12.20
2023-02-26T09:23:13.535Z,8.80
2023-02-26T09:25:41.991Z,10.00
2023-02-26T09:28:10.198Z,9.70
2023-02-26T09:30:40.115Z,6.90
2023-02-26T09:33:09.734Z,9.90
2023-02-26T09:35:38.379Z,8.70
2023-02-26T09:38:10.732Z,8.20
2023-02-26T09:41:01.774Z,9.60
2023-02-26T09:43:59.633Z,9.90
2023-02-26T09:46:47.204Z,9.40
2023-02-26T09:49:40.598Z,9.30
2023-02-26T09:52:33.834Z,10.80
2023-02-26T09:55:15.593Z,9.90
2023-02-26T09:57:45.533Z,10.20
2023-02-26T10:00:24.822Z,9.80
2023-02-26T10:03:11.385Z,8.70
2023-02-26T10:06:04.840Z,9.10
2023-02-26T10:09:02.920Z,9.90
2023-02-26T10:11:47.454Z,10.50
2023-02-26T10:14:24.480Z,9.30
2023-02-26T10:16:55.297Z,9.80
2023-02-26T10:19:27.686Z,9.60
2023-02-26T10:22:06.757Z,9.40
2023-02-26T10:24:47.255Z,11.70
2023-02-26T10:27:17.070Z,10.20
2023-02-26T10:29:46.314Z,10.10
2023-02-26T10:32:33.288Z,9.10
2023-02-26T10:35:09.907Z,8.10
2023-02-26T10:37:52.458Z,8.60
2023-02-26T10:40:43.748Z,9.50
2023-02-26T10:43:30.452Z,9.40
2023-02-26T10:46:37.352Z,10.10
2023-02-26T10:49:25.895Z,10.20
2023-02-26T10:51:55.134Z,9.50
2023-02-26T10:54:29.598Z,8.40
2023-02-26T10:56:57.712Z,9.70
2023-02-26T10:59:28.533Z,9.50
2023-02-26T11:01:56.916Z,8.20
2023-02-26T11:04:26.676Z,8.80
2023-02-26T11:06:57.636Z,7.20
2023-02-26T11:11:58.197Z,6.60
2023-02-26T11:14:28.700Z,8.00
2023-02-26T11:17:38.780Z,7.90
2023-02-26T11:20:39.638Z,7.10
2023-02-26T11:23:11.481Z,8.30
2023-02-26T11:25:41.545Z,9.40
2023-02-26T11:28:32.866Z,9.70
2023-02-26T11:31:02.602Z,8.90
2023-02-26T11:33:39.348Z,9.40
2023-02-26T11:36:11.562Z,9.10
2023-02-26T11:38:40.657Z,9.40
2023-02-26T11:41:09.047Z,8.10
2023-02-26T11:43:44.406Z,7.90
2023-02-26T11:46:13.257Z,7.30
2023-02-26T11:48:45.390Z,8.50
2023-02-26T11:51:24.416Z,8.30
2023-02-26T11:53:57.755Z,6.90
2023-02-26T11:56:36.056Z,6.20
2023-02-26T11:59:21.432Z,6.50
2023-02-26T12:01:53.230Z,6.80
2023-02-26T12:04:23.120Z,7.60
2023-02-26T12:06:54.682Z,7.60
2023-02-26T12:09:23.236Z,8.40
2023-02-26T12:12:16.711Z,8.00
2023-02-26T12:15:08.335Z,8.50
2023-02-26T12:18:06.671Z,9.00
2023-02-26T12:21:05.619Z,7.50
2023-02-26T12:23:49.962Z,7.20
2023-02-26T12:26:29.014Z,7.90
2023-02-26T12:29:29.426Z,8.20
2023-02-26T12:32:39.116Z,6.40
2023-02-26T12:35:34.764Z,5.80
2023-02-26T12:38:43.312Z,7.00
2023-02-26T12:41:23.784Z,7.60
2023-02-26T12:43:55.836Z,9.40
2023-02-26T12:46:36.041Z,8.40
2023-02-26T12:51:55.812Z,7.90
2023-02-26T12:54:36.387Z,7.80
2023-02-26T12:57:13.378Z,8.90
2023-02-26T13:00:13.078Z,9.50
2023-02-26T13:03:02.106Z,10.90
2023-02-26T13:05:59.436Z,9.90
2023-02-26T13:08:53.827Z,9.60
2023-02-26T13:11:38.215Z,7.50
2023-02-26T13:14:21.843Z,7.60
2023-02-26T13:16:54.881Z,8.30
2023-02-26T13:19:29.506Z,8.80
2023-02-26T13:22:00.763Z,8.40
2023-02-26T13:24:43.050Z,7.90
2023-02-26T13:27:12.108Z,8.70
2023-02-26T13:29:47.903Z,3.90
2023-02-26T13:32:46.926Z,7.30
2023-02-26T13:37:55.795Z,8.10
2023-02-26T13:43:17.867Z,8.40
2023-02-26T13:46:17.463Z,8.30
2023-02-26T13:48:50.086Z,7.00
2023-02-26T13:51:37.949Z,8.40
2023-02-26T13:54:29.383Z,7.00
2023-02-26T13:57:21.419Z,8.00
2023-02-26T14:00:01.356Z,7.90
2023-02-26T14:02:44.804Z,8.50
2023-02-26T14:05:48.326Z,7.80
2023-02-26T14:08:26.552Z,7.30
2023-02-26T14:11:05.252Z,7.50
2023-02-26T14:13:40.482Z,6.80
2023-02-26T14:16:12.665Z,7.10
2023-02-26T14:18:50.324Z,7.70
2023-02-26T14:22:18.393Z,7.60
2023-02-26T14:25:00.918Z,7.80
2023-02-26T14:27:40.679Z,7.00
2023-02-26T14:30:09.311Z,8.20
2023-02-26T14:33:01.523Z,8.20
2023-02-26T14:35:40.690Z,7.90
2023-02-26T14:38:13.087Z,9.30
2023-02-26T14:40:55.648Z,12.70
2023-02-26T14:43:46.410Z,9.70
2023-02-26T14:46:14.939Z,12.30
2023-02-26T14:48:42.948Z,12.50
2023-02-26T14:51:29.849Z,6.60
2023-02-26T14:54:14.469Z,7.60
2023-02-26T14:56:52.497Z,8.30
2023-02-26T14:59:26.724Z,8.30
2023-02-26T15:02:00.931Z,8.20
2023-02-26T15:05:03.499Z,8.70
2023-02-26T15:07:44.566Z,9.70
2023-02-26T15:10:25.394Z,8.40
2023-02-26T15:13:22.122Z,9.20
2023-02-26T15:16:12.062Z,14.90
2023-02-26T15:18:54.520Z,11.00
2023-02-26T15:21:32.584Z,11.40
2023-02-26T15:24:00.884Z,10.60
2023-02-26T15:26:36.422Z,10.30
2023-02-26T15:29:08.497Z,15.10
2023-02-26T15:31:42.673Z,13.10
2023-02-26T15:34:15.737Z,11.60
2023-02-26T15:36:51.440Z,11.70
2023-02-26T15:39:23.509Z,12.40
2023-02-26T15:41:53.008Z,11.30
2023-02-26T15:44:27.418Z,13.00
2023-02-26T15:47:04.657Z,11.60
2023-02-26T15:49:38.538Z,10.40
2023-02-26T15:52:08.096Z,10.70
2023-02-26T15:54:45.013Z,11.50
2023-02-26T15:57:15.719Z,10.30
2023-02-26T15:59:45.857Z,11.20
2023-02-26T16:02:20.405Z,13.10
2023-02-26T16:04:48.951Z,11.60
2023-02-26T16:07:17.067Z,12.50
2023-02-26T16:09:46.852Z,15.00
2023-02-26T16:12:25.874Z,13.70
2023-02-26T16:14:59.278Z,15.10
2023-02-26T16:17:32.563Z,12.80
2023-02-26T16:20:03.593Z,12.00
2023-02-26T16:22:40.668Z,13.00
2023-02-26T16:25:19.498Z,11.40
2023-02-26T16:28:03.777Z,14.10
2023-02-26T16:30:35.965Z,13.30
2023-02-26T16:33:09.881Z,22.20
2023-02-26T16:35:42.171Z,48.10
2023-02-26T16:38:24.311Z,21.20
2023-02-26T16:41:06.144Z,15.70
2023-02-26T16:43:49.540Z,16.60
2023-02-26T16:46:42.941Z,16.50
2023-02-26T16:49:34.018Z,11.50
2023-02-26T16:52:02.337Z,12.90
2023-02-26T16:54:38.670Z,11.50
2023-02-26T16:57:20.622Z,10.60
2023-02-26T16:59:57.766Z,12.20
2023-02-26T17:02:32.020Z,11.50
2023-02-26T17:05:02.495Z,12.10
2023-02-26T17:07:32.187Z,11.10
2023-02-26T17:10:13.936Z,12.00
2023-02-26T17:12:51.094Z,11.60
2023-02-26T17:15:31.577Z,10.80
2023-02-26T17:18:03.277Z,10.80
2023-02-26T17:23:30.718Z,10.60
2023-02-26T17:26:02.489Z,12.70
2023-02-26T17:28:37.000Z,12.20
2023-02-26T17:31:05.532Z,13.50
2023-02-26T17:33:34.123Z,11.00
2023-02-26T17:36:05.989Z,13.20
2023-02-26T17:38:34.157Z,16.20
2023-02-26T17:41:02.352Z,14.30
2023-02-26T17:43:33.194Z,15.30
2023-02-26T17:46:02.033Z,14.70
2023-02-26T17:48:31.130Z,14.00
2023-02-26T17:51:01.336Z,15.00
2023-02-26T17:53:40.953Z,15.80
2023-02-26T17:56:27.034Z,16.70
2023-02-26T17:58:59.326Z,20.20
2023-02-26T18:01:29.158Z,16.20
2023-02-26T18:04:01.659Z,15.90
2023-02-26T18:06:34.730Z,16.70
2023-02-26T18:09:05.943Z,14.90
2023-02-26T18:11:35.667Z,17.50
2023-02-26T18:14:05.820Z,15.40
2023-02-26T18:16:40.208Z,16.20
2023-02-26T18:19:09.209Z,17.50
2023-02-26T18:21:37.469Z,17.50
2023-02-26T18:24:05.917Z,15.50
2023-02-26T18:26:34.030Z,16.50
2023-02-26T18:29:02.228Z,17.20
2023-02-26T18:31:35.231Z,15.40
2023-02-26T18:34:09.368Z,17.90
2023-02-26T18:36:40.429Z,16.40
2023-02-26T18:39:13.355Z,16.50
2023-02-26T18:41:42.582Z,16.20
2023-02-26T18:44:11.313Z,17.40
2023-02-26T18:46:41.941Z,21.00
2023-02-26T18:49:17.122Z,21.80
2023-02-26T18:51:48.159Z,16.30
2023-02-26T18:54:16.324Z,16.90
2023-02-26T18:56:47.865Z,16.80
2023-02-26T18:59:15.991Z,16.00
2023-02-26T19:01:48.110Z,16.10
2023-02-26T19:04:16.756Z,16.20
2023-02-26T19:06:50.514Z,16.00
2023-02-26T19:09:18.766Z,16.10
2023-02-26T19:11:46.798Z,17.10
2023-02-26T19:14:15.692Z,14.50
2023-02-26T19:16:44.507Z,14.40
2023-02-26T19:19:19.203Z,15.20
2023-02-26T19:21:47.707Z,15.60
2023-02-26T19:24:17.631Z,13.60
2023-02-26T19:26:45.808Z,17.90
2023-02-26T19:29:15.735Z,16.00
2023-02-26T19:31:44.287Z,16.30
2023-02-26T19:34:13.104Z,17.80
2023-02-26T19:36:48.189Z,17.50
2023-02-26T19:39:16.964Z,18.00
2023-02-26T19:41:46.151Z,17.80
2023-02-26T19:44:15.888Z,17.50
2023-02-26T19:46:44.066Z,17.80
2023-02-26T19:49:13.076Z,21.00
2023-02-26T19:51:41.302Z,18.60
2023-02-26T19:54:09.668Z,18.90
2023-02-26T19:56:37.712Z,18.00
2023-02-26T19:59:09.040Z,18.40
2023-02-26T20:01:37.606Z,16.90
2023-02-26T20:04:07.855Z,19.80
2023-02-26T20:06:38.241Z,17.80
2023-02-26T20:09:08.971Z,18.10
2023-02-26T20:11:38.252Z,18.00
2023-02-26T20:14:06.881Z,17.80
2023-02-26T20:16:36.190Z,17.90
2023-02-26T20:19:04.273Z,18.50
2023-02-26T20:21:34.189Z,20.10
2023-02-26T20:24:02.549Z,18.90
2023-02-26T20:26:32.716Z,19.20
2023-02-26T20:29:01.165Z,17.30
2023-02-26T20:31:30.814Z,18.10
2023-02-26T20:34:06.879Z,17.80
2023-02-26T20:36:35.600Z,19.00
2023-02-26T20:39:03.871Z,18.70
2023-02-26T20:41:31.876Z,19.80
2023-02-26T20:44:00.154Z,20.20
2023-02-26T20:46:29.989Z,20.00
2023-02-26T20:49:03.254Z,19.50
2023-02-26T20:51:31.890Z,20.10
2023-02-26T20:53:59.936Z,19.60
2023-02-26T20:56:28.541Z,20.80
2023-02-26T20:58:57.439Z,17.90
2023-02-26T21:01:26.255Z,19.80
2023-02-26T21:03:54.613Z,20.30
2023-02-26T21:06:23.167Z,23.20
2023-02-26T21:08:51.760Z,17.00
2023-02-26T21:11:20.762Z,16.00
2023-02-26T21:13:53.808Z,17.10
2023-02-26T21:16:22.081Z,15.20
2023-02-26T21:18:50.157Z,13.20
2023-02-26T21:21:19.329Z,14.90
2023-02-26T21:23:47.427Z,15.00
2023-02-26T21:26:15.993Z,11.80
2023-02-26T21:28:48.470Z,10.80
2023-02-26T21:31:22.219Z,9.70
2023-02-26T21:33:50.543Z,10.90
2023-02-26T21:36:18.666Z,10.40
2023-02-26T21:38:48.142Z,8.70
2023-02-26T21:41:16.700Z,10.30
2023-02-26T21:43:47.948Z,9.70
2023-02-26T21:46:16.298Z,9.20
2023-02-26T21:48:46.388Z,9.70
2023-02-26T21:51:15.974Z,8.20
2023-02-26T21:53:47.448Z,7.80
2023-02-26T21:56:15.939Z,6.40
2023-02-26T21:58:44.315Z,6.30
2023-02-26T22:01:12.954Z,8.00
2023-02-26T22:03:41.256Z,6.90
2023-02-26T22:06:09.949Z,7.20
2023-02-26T22:08:38.120Z,6.40
2023-02-26T22:11:11.806Z,5.30
2023-02-26T22:13:40.460Z,7.30
2023-02-26T22:16:08.531Z,6.60
2023-02-26T22:18:37.297Z,8.20
2023-02-26T22:21:06.367Z,7.80
2023-02-26T22:23:34.491Z,8.90
2023-02-26T22:26:02.614Z,8.00
2023-02-26T22:28:30.923Z,8.10
2023-02-26T22:30:59.557Z,11.20
2023-02-26T22:33:27.932Z,9.80
2023-02-26T22:35:57.841Z,8.40
2023-02-26T22:38:26.728Z,11.70
2023-02-26T22:40:54.762Z,10.00
2023-02-26T22:43:23.384Z,7.50
2023-02-26T22:45:53.389Z,7.90
2023-02-26T22:48:22.434Z,8.30
2023-02-26T22:50:50.972Z,8.40
2023-02-26T22:53:19.268Z,8.70
2023-02-26T22:55:47.648Z,8.40
2023-02-26T22:58:18.436Z,8.80
2023-02-26T23:00:46.520Z,8.50
2023-02-26T23:03:16.986Z,8.80
2023-02-26T23:05:45.819Z,9.80
2023-02-26T23:08:13.941Z,9.60
2023-02-26T23:10:42.516Z,9.20
2023-02-26T23:13:11.684Z,9.20
2023-02-26T23:15:39.833Z,9.80
2023-02-26T23:18:12.993Z,9.10
2023-02-26T23:20:54.697Z,9.40
2023-02-26T23:23:30.692Z,10.00
2023-02-26T23:25:58.711Z,8.00
2023-02-26T23:28:27.278Z,7.80
2023-02-26T23:30:55.572Z,9.00
2023-02-26T23:33:23.821Z,8.70
2023-02-26T23:35:52.681Z,8.00
2023-02-26T23:38:22.391Z,7.90
2023-02-26T23:40:51.097Z,7.70
2023-02-26T23:43:19.942Z,6.90
2023-02-26T23:45:49.404Z,7.90
2023-02-26T23:48:17.521Z,7.90
2023-02-26T23:50:48.263Z,7.60
2023-02-26T23:53:16.909Z,7.10
2023-02-26T23:55:46.243Z,7.10
2023-02-26T23:58:15.111Z,6.10
